Time;durP1;ratioP1;P1;durP2;ratioP2;P2;SDS_P1;SDS_P2;PMS_P1;PMS_P2;Temp;Humidity;BMP_temperature;BMP_pressure;BME280_temperature;BME280_humidity;BME280_pressure;Samples;Min_cycle;Max_cycle;Signal;HPM_P1;HPM_P2
2021/12/07 00:02:23;;;;;;;9.85;6.47;;;22.80;44.30;;;;;;6160336;28;80202;-76
2021/12/07 00:05:24;;;;;;;9.00;5.75;;;22.70;44.30;;;;;;6159773;28;80658;-76
2021/12/07 00:08:25;;;;;;;9.20;5.63;;;22.80;44.30;;;;;;6161500;28;80782;-76
2021/12/07 00:11:26;;;;;;;7.78;5.72;;;22.70;44.10;;;;;;6160967;28;81357;-77
2021/12/07 00:14:33;;;;;;;9.23;6.07;;;22.70;44.00;;;;;;6159621;28;81700;-75
2021/12/07 00:17:34;;;;;;;9.45;5.95;;;22.70;44.00;;;;;;6159072;28;80852;-75
2021/12/07 00:20:34;;;;;;;8.48;5.68;;;22.70;43.80;;;;;;6158365;28;81498;-75
2021/12/07 00:23:35;;;;;;;8.85;5.88;;;22.70;43.60;;;;;;6158120;28;80459;-75
2021/12/07 00:26:36;;;;;;;7.45;5.35;;;22.70;43.60;;;;;;6163386;28;83222;-75
2021/12/07 00:29:36;;;;;;;9.63;5.80;;;22.70;43.70;;;;;;6157859;28;80064;-74
2021/12/07 00:32:42;;;;;;;9.38;5.45;;;22.70;43.50;;;;;;6149686;28;83333;-74
2021/12/07 00:35:42;;;;;;;6.65;5.28;;;22.70;43.40;;;;;;6160229;28;80474;-73
2021/12/07 00:38:43;;;;;;;8.68;5.45;;;22.70;43.50;;;;;;6156449;28;80193;-73
2021/12/07 00:41:45;;;;;;;8.60;5.50;;;22.70;43.40;;;;;;6159474;28;81686;-73
2021/12/07 00:44:46;;;;;;;6.65;5.10;;;22.70;43.20;;;;;;6158413;28;80084;-74
2021/12/07 00:47:47;;;;;;;8.32;5.20;;;22.80;43.30;;;;;;6160349;28;81199;-73
2021/12/07 00:50:47;;;;;;;5.47;4.32;;;22.80;43.20;;;;;;6159211;28;81437;-73
2021/12/07 00:53:48;;;;;;;9.07;5.95;;;22.70;43.10;;;;;;6154030;28;83514;-73
2021/12/07 00:56:48;;;;;;;7.38;4.88;;;22.70;43.00;;;;;;6154216;28;80576;-72
2021/12/07 00:59:49;;;;;;;8.38;4.82;;;22.70;43.20;;;;;;6154995;28;82715;-72
2021/12/07 01:02:50;;;;;;;6.90;5.05;;;22.70;43.10;;;;;;6156557;28;80934;-73
2021/12/07 01:05:53;;;;;;;8.13;5.10;;;22.70;43.00;;;;;;6157706;28;80525;-74
2021/12/07 01:25:12;;;;;;;6.13;4.32;;;22.60;43.60;;;;;;6154654;28;83690;-74
2021/12/07 01:28:28;;;;;;;7.28;5.15;;;22.60;43.40;;;;;;6160379;28;82577;-74
2021/12/07 01:31:43;;;;;;;6.82;4.90;;;22.60;43.30;;;;;;6140913;28;83353;-73
2021/12/07 01:41:20;;;;;;;7.38;4.97;;;22.60;43.30;;;;;;6140032;28;81033;-75
2021/12/07 01:44:44;;;;;;;7.13;4.70;;;22.60;43.30;;;;;;6149201;28;83585;-74
2021/12/07 01:51:05;;;;;;;7.88;4.78;;;22.60;43.40;;;;;;6156950;28;81470;-74
2021/12/07 02:00:44;;;;;;;5.40;4.63;;;22.60;43.30;;;;;;6164380;28;83662;-73
2021/12/07 02:03:45;;;;;;;8.38;5.20;;;22.60;43.00;;;;;;6161941;28;80618;-73
2021/12/07 02:06:45;;;;;;;10.38;5.68;;;22.60;42.90;;;;;;6139915;28;83471;-73
2021/12/07 02:09:52;;;;;;;6.00;4.50;;;22.60;42.80;;;;;;6143979;28;82741;-73
2021/12/07 02:12:55;;;;;;;7.47;5.05;;;22.60;42.90;;;;;;6139647;28;83110;-73
2021/12/07 02:15:56;;;;;;;6.25;4.72;;;22.60;42.60;;;;;;6158183;28;80152;-74
2021/12/07 02:18:59;;;;;;;6.65;4.95;;;22.60;42.90;;;;;;6157639;28;83126;-73
2021/12/07 02:22:00;;;;;;;6.35;5.00;;;22.60;42.70;;;;;;6152233;28;83151;-73
2021/12/07 02:25:06;;;;;;;6.68;4.53;;;22.60;42.40;;;;;;6156976;28;83248;-73
2021/12/07 02:28:12;;;;;;;6.18;4.60;;;22.60;42.60;;;;;;6156556;28;80441;-73
2021/12/07 02:31:13;;;;;;;6.90;5.32;;;22.60;42.50;;;;;;6154864;28;83182;-73
2021/12/07 02:34:14;;;;;;;6.07;4.90;;;22.60;42.50;;;;;;6159201;28;82250;-73
2021/12/07 02:37:16;;;;;;;6.82;4.95;;;22.60;42.40;;;;;;6165663;28;83614;-74
2021/12/07 02:40:16;;;;;;;6.60;4.88;;;22.60;42.40;;;;;;6146532;28;80383;-74
2021/12/07 02:43:19;;;;;;;7.68;5.30;;;22.60;42.30;;;;;;6156470;28;80690;-74
2021/12/07 02:46:19;;;;;;;8.75;5.10;;;22.60;42.40;;;;;;6143273;28;82848;-73
2021/12/07 02:49:23;;;;;;;7.45;4.97;;;22.60;42.40;;;;;;6159328;28;81865;-73
2021/12/07 02:52:24;;;;;;;7.93;4.90;;;22.60;42.80;;;;;;6137514;28;83328;-72
2021/12/07 02:55:25;;;;;;;8.55;5.53;;;22.60;42.80;;;;;;6159632;28;82510;-72
2021/12/07 02:58:26;;;;;;;7.75;5.18;;;22.60;42.80;;;;;;6151773;28;83336;-73
2021/12/07 03:01:31;;;;;;;7.10;5.18;;;22.60;42.80;;;;;;6159965;28;80461;-72
2021/12/07 03:04:37;;;;;;;9.63;5.70;;;22.60;42.80;;;;;;6165818;28;83173;-74
2021/12/07 03:08:17;;;;;;;8.80;6.00;;;22.60;42.80;;;;;;6159551;28;83112;-74
2021/12/07 03:27:47;;;;;;;9.57;6.50;;;22.80;41.30;;;;;;6154424;28;82745;-74
2021/12/07 03:30:49;;;;;;;7.60;5.72;;;22.80;41.10;;;;;;6156907;28;83134;-74
2021/12/07 03:33:50;;;;;;;10.07;6.47;;;22.90;40.90;;;;;;6155971;28;81670;-75
2021/12/07 03:36:50;;;;;;;10.88;6.40;;;23.00;40.90;;;;;;6158849;28;80666;-77
2021/12/07 03:39:51;;;;;;;9.80;7.22;;;23.00;40.80;;;;;;6155175;28;82994;-70
2021/12/07 03:42:52;;;;;;;8.38;6.03;;;23.10;40.70;;;;;;6174368;28;83576;-72
2021/12/07 03:45:52;;;;;;;9.45;6.47;;;23.10;40.80;;;;;;6160537;28;83332;-71
2021/12/07 03:48:55;;;;;;;9.63;6.35;;;23.10;40.70;;;;;;6172257;28;81516;-72
2021/12/07 03:51:56;;;;;;;8.45;5.95;;;23.10;40.50;;;;;;6153684;28;85372;-72
2021/12/07 03:54:56;;;;;;;11.35;6.85;;;23.10;40.60;;;;;;6145511;28;83163;-72
2021/12/07 03:57:57;;;;;;;9.38;6.30;;;23.20;40.50;;;;;;6158521;28;80677;-73
2021/12/07 04:00:58;;;;;;;8.07;6.10;;;23.20;40.50;;;;;;6159625;28;82934;-72
2021/12/07 04:04:02;;;;;;;9.77;6.43;;;23.20;40.40;;;;;;6155697;28;82858;-72
2021/12/07 04:07:02;;;;;;;8.07;6.25;;;23.20;40.40;;;;;;6150536;28;81513;-71
2021/12/07 04:10:03;;;;;;;8.95;6.13;;;23.30;40.30;;;;;;6153675;28;82612;-71
2021/12/07 04:13:03;;;;;;;10.15;7.03;;;23.30;40.00;;;;;;6155729;28;80777;-72
2021/12/07 04:16:04;;;;;;;8.50;5.85;;;23.40;40.10;;;;;;6158723;28;83200;-72
2021/12/07 04:19:05;;;;;;;11.15;6.78;;;23.40;40.00;;;;;;6155940;28;83358;-72
2021/12/07 04:22:05;;;;;;;10.30;6.95;;;23.40;40.00;;;;;;6157761;28;81877;-72
2021/12/07 04:25:06;;;;;;;9.57;6.40;;;23.40;39.80;;;;;;6156246;28;80952;-72
2021/12/07 04:28:06;;;;;;;10.77;6.63;;;23.40;39.80;;;;;;6150608;28;80508;-73
2021/12/07 04:31:07;;;;;;;9.35;6.78;;;23.40;39.70;;;;;;6150978;28;80346;-73
2021/12/07 04:34:07;;;;;;;9.57;6.85;;;23.40;39.50;;;;;;6158412;28;81840;-73
2021/12/07 04:37:08;;;;;;;8.93;6.25;;;23.40;39.60;;;;;;6155870;28;80698;-73
2021/12/07 04:40:09;;;;;;;11.23;7.35;;;23.40;39.60;;;;;;6160223;28;81477;-73
2021/12/07 04:43:09;;;;;;;10.43;7.18;;;23.40;39.70;;;;;;6159428;28;80525;-72
2021/12/07 04:46:24;;;;;;;10.70;7.03;;;23.50;39.60;;;;;;6147594;28;81018;-71
2021/12/07 04:59:04;;;;;;;10.13;6.50;;;23.50;39.60;;;;;;6157155;28;82883;-72
2021/12/07 05:02:04;;;;;;;9.73;7.13;;;23.50;39.70;;;;;;6155257;28;80939;-72
2021/12/07 05:05:05;;;;;;;12.18;7.88;;;23.50;39.60;;;;;;6158403;28;80683;-72
2021/12/07 05:08:14;;;;;;;;;;;23.50;39.50;;;;;;6157745;28;81604;-66
2021/12/07 05:14:20;;;;;;;10.07;7.38;;;23.50;39.50;;;;;;6158022;28;80227;-66
2021/12/07 05:24:05;;;;;;;11.10;7.43;;;23.50;39.90;;;;;;6155046;28;80704;-66
2021/12/07 05:40:23;;;;;;;11.35;7.47;;;23.60;40.20;;;;;;6152216;28;81219;-66
2021/12/07 05:43:24;;;;;;;12.27;8.05;;;23.60;40.50;;;;;;6155196;28;80896;-70
2021/12/07 05:46:24;;;;;;;11.32;7.63;;;23.60;40.50;;;;;;6142199;28;80901;-70
2021/12/07 05:49:25;;;;;;;14.90;8.70;;;23.60;40.80;;;;;;6148460;28;80857;-67
2021/12/07 05:52:25;;;;;;;13.32;7.10;;;23.60;41.70;;;;;;6153229;28;80359;-67
2021/12/07 05:55:26;;;;;;;9.93;7.10;;;23.50;43.60;;;;;;6158582;28;80604;-67
2021/12/07 05:58:26;;;;;;;8.50;6.07;;;23.40;44.40;;;;;;6156644;28;80002;-70
2021/12/07 06:01:27;;;;;;;9.10;6.15;;;23.30;45.10;;;;;;6157375;28;80317;-67
2021/12/07 06:04:30;;;;;;;7.68;5.45;;;23.20;45.70;;;;;;6155307;28;80603;-66
2021/12/07 06:07:31;;;;;;;8.85;4.78;;;23.20;46.40;;;;;;6154536;28;81326;-67
2021/12/07 06:10:31;;;;;;;40.55;20.88;;;23.20;47.10;;;;;;6157479;28;80302;-67
2021/12/07 06:13:32;;;;;;;137.43;68.18;;;23.10;47.30;;;;;;6152904;28;83119;-67
2021/12/07 06:16:32;;;;;;;223.32;105.35;;;23.10;48.20;;;;;;6141368;28;82990;-68
2021/12/07 06:19:33;;;;;;;280.75;133.88;;;23.10;48.20;;;;;;6133310;28;85496;-68
2021/12/07 06:22:33;;;;;;;193.30;93.30;;;23.10;48.20;;;;;;6149000;28;86448;-68
2021/12/07 06:25:34;;;;;;;160.30;80.15;;;23.10;48.50;;;;;;6146259;28;86798;-71
2021/12/07 06:28:34;;;;;;;133.23;63.85;;;23.10;49.10;;;;;;6140938;28;83512;-67
2021/12/07 06:31:35;;;;;;;97.78;47.70;;;23.10;49.10;;;;;;6141709;28;84180;-67
2021/12/07 06:34:36;;;;;;;89.07;41.75;;;23.00;48.80;;;;;;6139028;28;83206;-67
2021/12/07 06:37:36;;;;;;;70.88;35.15;;;23.00;49.30;;;;;;6152893;28;83154;-67
2021/12/07 06:40:37;;;;;;;61.03;29.00;;;23.00;49.20;;;;;;6151420;28;85420;-66
2021/12/07 06:43:37;;;;;;;48.58;23.67;;;23.00;49.50;;;;;;6153241;28;83195;-70
2021/12/07 06:46:38;;;;;;;44.00;21.17;;;23.00;49.70;;;;;;6151487;28;83003;-66
2021/12/07 06:49:39;;;;;;;34.05;18.17;;;23.00;50.30;;;;;;6150238;28;85983;-67
2021/12/07 06:52:39;;;;;;;37.00;18.88;;;22.90;50.00;;;;;;6133089;28;86107;-67
2021/12/07 06:55:40;;;;;;;38.92;18.00;;;22.90;49.40;;;;;;6150307;28;83450;-66
2021/12/07 06:58:40;;;;;;;37.25;18.48;;;22.90;49.80;;;;;;6147184;28;83236;-66
2021/12/07 07:01:41;;;;;;;33.90;17.17;;;23.00;49.70;;;;;;6152515;28;83131;-68
2021/12/07 07:04:41;;;;;;;27.20;14.45;;;23.00;49.60;;;;;;6152198;28;83204;-68
2021/12/07 07:07:42;;;;;;;23.40;12.95;;;23.00;49.20;;;;;;6135207;28;83349;-67
2021/12/07 07:10:42;;;;;;;21.15;12.55;;;23.10;49.30;;;;;;6151298;28;82738;-67
2021/12/07 07:13:43;;;;;;;25.00;13.02;;;23.00;49.40;;;;;;6148941;28;82984;-67
2021/12/07 07:16:43;;;;;;;21.42;10.38;;;23.00;49.30;;;;;;6153232;28;83007;-67
2021/12/07 07:19:44;;;;;;;19.05;10.27;;;23.10;49.70;;;;;;6153952;28;83176;-67
2021/12/07 07:22:44;;;;;;;20.88;10.68;;;23.10;49.70;;;;;;6152616;28;83610;-67
2021/12/07 07:25:45;;;;;;;15.32;8.90;;;23.00;48.90;;;;;;6153874;28;83764;-68
2021/12/07 07:28:45;;;;;;;15.13;9.55;;;23.00;48.90;;;;;;6158494;28;83335;-68
2021/12/07 07:31:46;;;;;;;16.50;9.40;;;23.00;49.60;;;;;;6158824;28;80302;-66
2021/12/07 07:34:47;;;;;;;17.27;10.57;;;23.00;48.90;;;;;;6152116;28;80512;-67
2021/12/07 07:37:47;;;;;;;18.50;9.70;;;23.00;49.20;;;;;;6152106;28;83695;-71
2021/12/07 07:40:48;;;;;;;18.38;10.40;;;23.00;49.20;;;;;;6149991;28;84215;-67
2021/12/07 07:43:50;;;;;;;15.30;9.25;;;23.00;49.00;;;;;;6136759;28;84807;-67
2021/12/07 07:46:52;;;;;;;15.18;8.85;;;23.00;49.00;;;;;;6156769;28;84081;-67
2021/12/07 07:49:53;;;;;;;17.77;8.90;;;23.00;49.10;;;;;;6158604;28;80415;-66
2021/12/07 07:52:53;;;;;;;16.63;9.20;;;23.00;49.00;;;;;;6157702;28;80390;-68
2021/12/07 07:55:54;;;;;;;17.10;8.88;;;23.00;48.80;;;;;;6159682;28;80292;-72
2021/12/07 07:58:54;;;;;;;13.20;8.15;;;23.00;48.70;;;;;;6146970;28;82009;-80
2021/12/07 08:01:55;;;;;;;17.42;8.75;;;23.00;48.80;;;;;;6155764;28;81861;-73
2021/12/07 08:04:55;;;;;;;21.30;11.70;;;23.00;49.00;;;;;;6152523;28;80600;-74
2021/12/07 08:07:56;;;;;;;23.13;13.95;;;23.00;48.90;;;;;;6151091;28;83291;-72
2021/12/07 08:10:56;;;;;;;32.30;15.45;;;22.90;48.90;;;;;;6156174;28;83034;-68
2021/12/07 08:13:57;;;;;;;31.88;17.10;;;22.90;48.80;;;;;;6152689;28;86339;-71
2021/12/07 08:16:59;;;;;;;29.65;17.08;;;22.90;48.80;;;;;;6151587;28;86291;-72
2021/12/07 08:20:00;;;;;;;26.40;16.77;;;22.90;48.80;;;;;;6155529;28;83086;-70
2021/12/07 08:23:04;;;;;;;31.63;17.17;;;22.90;48.70;;;;;;6154794;28;82820;-68
2021/12/07 08:26:05;;;;;;;31.48;17.27;;;22.90;48.70;;;;;;6145407;28;83540;-67
2021/12/07 08:29:05;;;;;;;29.38;16.52;;;22.80;48.60;;;;;;6152169;28;83419;-66
2021/12/07 08:32:06;;;;;;;22.25;14.70;;;22.80;48.40;;;;;;6153462;28;89385;-68
2021/12/07 08:35:06;;;;;;;21.73;13.23;;;22.80;48.30;;;;;;6156117;28;83632;-65
2021/12/07 08:38:07;;;;;;;20.95;12.32;;;22.80;48.10;;;;;;6155580;28;84135;-66
2021/12/07 08:41:07;;;;;;;20.30;12.23;;;22.80;48.10;;;;;;6146855;28;84495;-67
2021/12/07 08:44:08;;;;;;;17.65;11.02;;;22.80;48.20;;;;;;6151692;28;83291;-65
2021/12/07 08:47:08;;;;;;;16.40;10.40;;;22.80;48.10;;;;;;6154283;28;83678;-65
2021/12/07 08:50:09;;;;;;;15.50;9.48;;;22.80;48.10;;;;;;6154256;28;83455;-65
2021/12/07 08:53:11;;;;;;;15.77;8.85;;;22.80;47.90;;;;;;6158144;28;82702;-68
2021/12/07 08:59:45;;;;;;;17.50;9.07;;;22.80;47.20;;;;;;6132592;28;80940;-64
2021/12/07 09:02:46;;;;;;;13.68;8.50;;;22.80;46.80;;;;;;6153160;28;80989;-68
2021/12/07 09:05:46;;;;;;;12.20;7.78;;;22.80;46.60;;;;;;6155753;28;80452;-66
2021/12/07 09:08:47;;;;;;;11.63;7.40;;;22.80;46.40;;;;;;6160159;28;80948;-66
2021/12/07 09:11:47;;;;;;;12.00;7.13;;;22.90;46.10;;;;;;6157810;28;81498;-65
2021/12/07 09:14:52;;;;;;;16.42;7.82;;;22.80;45.80;;;;;;6153232;28;81929;-69
2021/12/07 09:17:52;;;;;;;10.88;7.18;;;22.80;45.60;;;;;;6150506;28;80420;-65
2021/12/07 09:20:53;;;;;;;10.45;6.43;;;22.80;45.30;;;;;;6149687;28;80419;-65
2021/12/07 09:23:53;;;;;;;10.48;6.63;;;22.90;45.10;;;;;;6154089;28;80818;-68
2021/12/07 09:26:54;;;;;;;11.20;6.25;;;22.80;44.90;;;;;;6151831;28;81261;-66
2021/12/07 09:29:54;;;;;;;10.77;6.93;;;22.90;45.20;;;;;;6155468;28;80782;-66
2021/12/07 09:32:55;;;;;;;9.43;6.35;;;22.90;44.40;;;;;;6151324;28;80696;-68
2021/12/07 09:35:55;;;;;;;12.45;6.75;;;22.90;44.40;;;;;;6151326;28;80295;-70
2021/12/07 09:38:56;;;;;;;8.48;6.15;;;22.90;44.20;;;;;;6152353;28;82309;-68
2021/12/07 09:41:56;;;;;;;10.77;6.65;;;22.90;44.10;;;;;;6151243;28;82894;-67
2021/12/07 09:44:57;;;;;;;9.82;6.43;;;22.90;43.90;;;;;;6148924;28;80674;-68
2021/12/07 09:47:57;;;;;;;9.82;6.68;;;22.90;43.70;;;;;;6146810;28;81268;-68
2021/12/07 09:50:58;;;;;;;10.52;6.88;;;22.90;43.60;;;;;;6155012;28;80863;-67
2021/12/07 09:53:58;;;;;;;10.48;6.80;;;22.80;42.90;;;;;;6144755;28;84484;-67
2021/12/07 09:56:59;;;;;;;15.15;6.28;;;22.80;43.30;;;;;;6150479;28;80820;-67
2021/12/07 09:59:59;;;;;;;13.23;7.75;;;22.80;43.10;;;;;;6155736;28;82084;-69
2021/12/07 10:03:00;;;;;;;11.98;6.78;;;22.80;42.70;;;;;;6152669;28;81013;-68
2021/12/07 10:06:00;;;;;;;10.63;7.07;;;22.80;42.90;;;;;;6150986;28;80514;-68
2021/12/07 10:09:01;;;;;;;9.68;6.55;;;22.90;43.30;;;;;;6150259;28;80519;-69
2021/12/07 10:12:01;;;;;;;9.65;6.75;;;22.90;43.60;;;;;;6152315;28;80409;-69
2021/12/07 10:15:02;;;;;;;9.45;6.38;;;22.90;43.50;;;;;;6152572;28;80898;-68
2021/12/07 10:18:02;;;;;;;10.25;7.20;;;22.80;43.60;;;;;;6153715;28;81837;-68
2021/12/07 10:21:04;;;;;;;10.77;6.15;;;22.80;43.80;;;;;;6154450;28;80527;-68
2021/12/07 10:24:08;;;;;;;11.82;6.72;;;22.80;43.90;;;;;;6153735;28;80801;-67
2021/12/07 10:27:08;;;;;;;11.25;7.68;;;22.80;43.80;;;;;;6154379;28;80853;-67
2021/12/07 10:30:09;;;;;;;11.18;7.35;;;22.80;43.90;;;;;;6156643;28;80391;-65
2021/12/07 10:33:09;;;;;;;11.18;6.97;;;22.80;43.90;;;;;;6140383;28;81772;-67
2021/12/07 10:36:10;;;;;;;11.50;7.15;;;22.80;44.00;;;;;;6151306;28;81682;-65
2021/12/07 10:39:10;;;;;;;10.60;6.90;;;22.80;44.00;;;;;;6156981;28;82136;-68
2021/12/07 10:42:11;;;;;;;10.75;6.82;;;22.80;44.00;;;;;;6154875;28;87736;-67
2021/12/07 10:45:11;;;;;;;11.27;7.40;;;22.80;44.20;;;;;;6160695;28;80788;-69
2021/12/07 10:48:12;;;;;;;15.23;6.97;;;22.80;44.70;;;;;;6143622;28;81171;-68
2021/12/07 10:51:12;;;;;;;9.93;6.35;;;22.80;44.80;;;;;;6154046;28;80205;-68
2021/12/07 10:54:13;;;;;;;11.90;8.25;;;22.80;45.80;;;;;;6156417;28;81517;-67
2021/12/07 10:57:13;;;;;;;16.45;8.40;;;22.80;46.50;;;;;;6155662;28;80963;-71
2021/12/07 11:00:16;;;;;;;14.55;8.48;;;22.70;46.50;;;;;;6145529;28;82106;-72
2021/12/07 11:03:16;;;;;;;12.68;7.63;;;22.80;47.80;;;;;;6148033;28;80333;-69
2021/12/07 11:06:17;;;;;;;14.25;8.38;;;22.80;49.50;;;;;;6161245;28;80437;-68
2021/12/07 11:09:17;;;;;;;17.58;8.43;;;22.80;50.70;;;;;;6159611;28;80824;-68
2021/12/07 11:12:17;;;;;;;12.35;7.85;;;22.90;51.20;;;;;;6157751;28;80525;-68
2021/12/07 11:15:24;;;;;;;14.93;8.60;;;22.90;51.70;;;;;;6157527;28;81823;-70
2021/12/07 11:18:25;;;;;;;14.50;8.00;;;22.90;52.00;;;;;;6158079;28;85093;-70
2021/12/07 11:21:26;;;;;;;12.98;8.18;;;22.90;51.80;;;;;;6151503;28;80630;-70
2021/12/07 11:24:27;;;;;;;13.70;8.27;;;22.90;51.80;;;;;;6157605;28;80574;-67
2021/12/07 11:30:46;;;;;;;15.25;8.00;;;22.90;51.80;;;;;;6156072;28;80706;-68
2021/12/07 11:33:47;;;;;;;15.30;7.80;;;22.90;51.50;;;;;;6159834;28;81708;-69
2021/12/07 11:36:47;;;;;;;11.48;8.07;;;22.90;51.30;;;;;;6157857;28;80579;-68
2021/12/07 11:39:50;;;;;;;13.50;8.40;;;22.90;51.10;;;;;;6161331;28;81097;-68
2021/12/07 11:42:50;;;;;;;11.77;7.35;;;22.80;50.90;;;;;;6160654;28;80902;-69
2021/12/07 11:45:51;;;;;;;11.15;7.25;;;22.80;50.30;;;;;;6160024;28;81138;-68
2021/12/07 11:48:51;;;;;;;13.15;7.85;;;22.80;50.10;;;;;;6159500;28;80788;-68
2021/12/07 11:51:52;;;;;;;15.60;7.43;;;22.80;50.00;;;;;;6156176;28;81614;-67
2021/12/07 11:54:52;;;;;;;11.50;7.40;;;22.90;50.70;;;;;;6150683;28;80339;-68
2021/12/07 11:57:53;;;;;;;10.90;7.75;;;22.90;50.40;;;;;;6144971;28;81085;-68
2021/12/07 12:00:53;;;;;;;11.00;7.82;;;22.90;50.00;;;;;;6153393;28;81893;-68
2021/12/07 12:03:54;;;;;;;11.65;7.45;;;22.90;50.00;;;;;;6153420;28;80622;-67
2021/12/07 12:06:54;;;;;;;13.90;6.93;;;22.90;50.30;;;;;;6155572;28;80659;-68
2021/12/07 12:09:55;;;;;;;13.35;7.65;;;22.90;49.50;;;;;;6160564;28;80897;-71
2021/12/07 12:12:55;;;;;;;14.27;6.75;;;22.80;50.00;;;;;;6152176;28;80506;-70
2021/12/07 12:15:56;;;;;;;9.75;6.80;;;22.80;50.00;;;;;;6157919;28;81376;-68
2021/12/07 12:18:56;;;;;;;10.82;7.45;;;22.80;50.00;;;;;;6157904;28;80385;-67
2021/12/07 12:21:57;;;;;;;11.60;7.40;;;22.80;50.70;;;;;;6157477;28;80431;-67
2021/12/07 12:24:57;;;;;;;15.43;7.57;;;22.80;50.80;;;;;;6160744;28;80141;-67
2021/12/07 12:27:58;;;;;;;11.93;6.72;;;22.80;51.00;;;;;;6148916;28;82167;-67
2021/12/07 12:30:59;;;;;;;13.55;7.55;;;22.80;50.70;;;;;;6137150;28;81633;-66
2021/12/07 12:33:59;;;;;;;14.48;7.35;;;22.80;50.50;;;;;;6149699;28;80873;-66
2021/12/07 12:37:00;;;;;;;12.93;7.97;;;22.80;50.10;;;;;;6161622;28;80398;-66
2021/12/07 12:40:00;;;;;;;12.82;7.22;;;22.80;50.00;;;;;;6165727;28;81312;-66
2021/12/07 12:43:02;;;;;;;12.75;7.63;;;22.80;50.00;;;;;;6158852;28;81411;-67
2021/12/07 12:46:02;;;;;;;13.77;7.45;;;22.80;49.90;;;;;;6157507;28;82523;-66
2021/12/07 12:49:03;;;;;;;10.95;7.10;;;22.70;49.80;;;;;;6162554;28;80687;-66
2021/12/07 12:52:03;;;;;;;11.35;6.85;;;22.80;49.50;;;;;;6152933;28;82071;-67
2021/12/07 12:55:04;;;;;;;12.93;7.88;;;22.70;49.10;;;;;;6146285;28;80209;-66
2021/12/07 12:58:04;;;;;;;11.02;7.35;;;22.70;49.00;;;;;;6150753;28;81387;-67
2021/12/07 13:01:05;;;;;;;12.02;7.07;;;22.70;49.50;;;;;;6146250;28;80720;-68
2021/12/07 13:04:05;;;;;;;12.77;7.45;;;22.70;48.60;;;;;;6159612;28;80697;-67
2021/12/07 13:10:10;;;;;;;10.98;6.85;;;22.70;48.60;;;;;;6155336;28;83238;-67
2021/12/07 13:13:10;;;;;;;14.32;7.00;;;22.70;48.60;;;;;;6146612;28;81490;-67
2021/12/07 13:16:11;;;;;;;12.52;7.38;;;22.70;48.20;;;;;;6144793;28;80472;-67
2021/12/07 13:19:11;;;;;;;13.38;7.45;;;22.70;48.30;;;;;;6157001;28;80371;-68
2021/12/07 13:22:12;;;;;;;11.02;7.05;;;22.70;48.30;;;;;;6158055;28;80158;-67
2021/12/07 13:25:12;;;;;;;14.90;7.85;;;22.60;47.90;;;;;;6159146;28;82784;-68
2021/12/07 13:28:13;;;;;;;12.43;7.07;;;22.60;47.90;;;;;;6157309;28;81705;-67
2021/12/07 13:31:13;;;;;;;13.52;7.20;;;22.60;47.70;;;;;;6158597;28;80563;-69
2021/12/07 13:34:14;;;;;;;12.98;7.57;;;22.60;47.50;;;;;;6151841;28;80125;-67
2021/12/07 13:37:14;;;;;;;11.45;7.40;;;22.70;47.50;;;;;;6158132;28;82104;-67
2021/12/07 13:40:15;;;;;;;11.07;7.18;;;22.60;47.60;;;;;;6143536;28;80325;-68
2021/12/07 13:43:15;;;;;;;10.50;7.05;;;22.60;47.50;;;;;;6157276;28;82855;-68
2021/12/07 13:46:16;;;;;;;9.93;6.85;;;22.60;47.50;;;;;;6155860;28;84395;-67
2021/12/07 13:49:16;;;;;;;11.85;6.85;;;22.60;47.90;;;;;;6157222;28;81330;-67
2021/12/07 13:52:17;;;;;;;13.15;7.28;;;22.60;47.50;;;;;;6158419;28;80983;-66
2021/12/07 13:55:19;;;;;;;11.55;6.93;;;22.60;47.60;;;;;;6158059;28;80224;-68
2021/12/07 13:58:19;;;;;;;12.10;7.97;;;22.50;47.50;;;;;;6156709;28;80842;-67
2021/12/07 14:01:20;;;;;;;12.05;7.22;;;22.60;47.50;;;;;;6145710;28;80306;-67
2021/12/07 14:04:20;;;;;;;11.57;6.90;;;22.50;47.70;;;;;;6156679;28;80472;-67
2021/12/07 14:07:21;;;;;;;13.10;7.57;;;22.50;47.50;;;;;;6159425;28;80452;-67
2021/12/07 14:10:21;;;;;;;13.73;7.28;;;22.50;47.50;;;;;;6157635;28;81226;-67
2021/12/07 14:13:22;;;;;;;9.98;6.75;;;22.50;47.40;;;;;;6149598;28;80737;-67
2021/12/07 14:16:23;;;;;;;11.68;7.65;;;22.50;47.50;;;;;;6147182;28;80439;-67
2021/12/07 14:19:24;;;;;;;11.63;6.72;;;22.50;47.30;;;;;;6155936;28;80941;-67
2021/12/07 14:22:24;;;;;;;10.20;6.82;;;22.50;47.40;;;;;;6154927;28;81385;-67
2021/12/07 14:25:25;;;;;;;10.82;6.65;;;22.50;47.70;;;;;;6157160;28;81359;-66
2021/12/07 14:28:25;;;;;;;9.73;6.75;;;22.50;47.10;;;;;;6155408;28;80618;-66
2021/12/07 14:31:26;;;;;;;12.55;7.45;;;22.50;47.40;;;;;;6156440;28;86447;-68
2021/12/07 14:34:27;;;;;;;9.68;6.53;;;22.50;47.30;;;;;;6154592;28;82472;-69
2021/12/07 14:37:27;;;;;;;12.48;7.13;;;22.50;47.00;;;;;;6153350;28;82750;-71
2021/12/07 14:40:28;;;;;;;10.63;7.10;;;22.50;47.80;;;;;;6148856;28;80240;-71
2021/12/07 14:43:28;;;;;;;14.15;7.60;;;22.50;47.60;;;;;;6154361;28;80333;-74
2021/12/07 14:46:29;;;;;;;14.93;7.82;;;22.50;47.80;;;;;;6153419;28;81996;-70
2021/12/07 14:49:29;;;;;;;11.77;7.32;;;22.50;47.90;;;;;;6151214;28;83573;-70
2021/12/07 14:52:30;;;;;;;13.23;7.22;;;22.50;47.90;;;;;;6151323;28;80816;-69
2021/12/07 14:55:31;;;;;;;11.73;7.60;;;22.50;47.70;;;;;;6152206;28;80266;-70
2021/12/07 14:58:31;;;;;;;12.30;7.55;;;22.50;47.40;;;;;;6147079;28;80720;-69
2021/12/07 15:01:32;;;;;;;12.95;7.90;;;22.50;48.00;;;;;;6148986;28;81472;-70
2021/12/07 15:04:32;;;;;;;11.93;7.15;;;22.60;48.10;;;;;;6150172;28;80344;-70
2021/12/07 15:07:33;;;;;;;11.25;7.35;;;22.60;48.10;;;;;;6154243;28;83482;-70
2021/12/07 15:10:34;;;;;;;10.70;6.75;;;22.60;47.80;;;;;;6144163;28;80600;-70
2021/12/07 15:13:35;;;;;;;15.10;7.80;;;22.60;48.20;;;;;;6157035;28;80723;-68
2021/12/07 15:16:35;;;;;;;11.25;6.68;;;22.60;48.30;;;;;;6155627;28;83495;-71
2021/12/07 15:19:36;;;;;;;12.95;7.13;;;22.60;48.00;;;;;;6149676;28;80747;-70
2021/12/07 15:22:36;;;;;;;11.77;6.93;;;22.60;48.00;;;;;;6154278;28;80470;-69
2021/12/07 15:25:37;;;;;;;11.63;7.10;;;22.70;48.20;;;;;;6154288;28;80625;-69
2021/12/07 15:28:38;;;;;;;12.02;6.70;;;22.70;48.30;;;;;;6160105;28;80511;-69
2021/12/07 15:31:38;;;;;;;11.38;7.25;;;22.60;48.20;;;;;;6148056;28;81509;-69
2021/12/07 15:34:39;;;;;;;11.13;7.20;;;22.70;48.10;;;;;;6147397;28;80501;-68
2021/12/07 15:37:40;;;;;;;11.10;7.60;;;22.70;48.20;;;;;;6147076;28;81870;-68
2021/12/07 15:40:41;;;;;;;11.20;7.28;;;22.70;48.10;;;;;;6152082;28;83289;-68
2021/12/07 15:43:41;;;;;;;10.88;7.05;;;22.60;48.20;;;;;;6150954;28;80792;-68
2021/12/07 15:46:42;;;;;;;11.20;7.47;;;22.70;48.30;;;;;;6160614;28;83198;-67
2021/12/07 15:49:42;;;;;;;10.80;6.65;;;22.60;48.20;;;;;;6149161;28;81236;-65
2021/12/07 15:52:43;;;;;;;11.73;7.95;;;22.60;48.10;;;;;;6157319;28;81951;-67
2021/12/07 15:55:44;;;;;;;13.10;7.68;;;22.60;47.80;;;;;;6156961;28;80459;-66
2021/12/07 15:58:45;;;;;;;14.88;8.32;;;22.60;48.20;;;;;;6158752;28;80654;-66
2021/12/07 16:01:46;;;;;;;13.45;7.30;;;22.60;48.60;;;;;;6156402;28;80209;-65
2021/12/07 16:04:46;;;;;;;10.05;6.60;;;22.60;48.40;;;;;;6158356;28;80758;-64
2021/12/07 16:07:47;;;;;;;12.23;7.72;;;22.60;48.40;;;;;;6148208;28;80721;-66
2021/12/07 16:10:47;;;;;;;14.02;7.43;;;22.60;48.60;;;;;;6157039;28;81524;-66
2021/12/07 16:13:48;;;;;;;11.57;7.30;;;22.70;48.40;;;;;;6154923;28;80750;-66
2021/12/07 16:16:51;;;;;;;13.02;7.80;;;22.70;48.50;;;;;;6155228;28;80271;-66
2021/12/07 16:19:51;;;;;;;13.73;7.65;;;22.70;48.40;;;;;;6156134;28;82167;-67
2021/12/07 16:22:52;;;;;;;13.65;7.85;;;22.70;49.10;;;;;;6160311;28;80538;-66
2021/12/07 16:25:53;;;;;;;13.35;8.38;;;22.70;48.80;;;;;;6159381;28;80394;-67
2021/12/07 16:28:53;;;;;;;13.52;7.50;;;22.70;48.50;;;;;;6153112;28;81705;-67
2021/12/07 16:31:54;;;;;;;10.43;6.93;;;22.70;48.50;;;;;;6157851;28;81009;-66
2021/12/07 16:34:54;;;;;;;12.32;7.60;;;22.70;48.40;;;;;;6159087;28;80634;-66
2021/12/07 16:37:55;;;;;;;11.65;7.35;;;22.70;48.30;;;;;;6158934;28;81687;-68
2021/12/07 16:40:55;;;;;;;12.20;7.97;;;22.70;48.30;;;;;;6158359;28;81421;-68
2021/12/07 16:43:56;;;;;;;12.73;8.45;;;22.70;48.10;;;;;;6159366;28;88139;-69
2021/12/07 16:46:56;;;;;;;17.02;7.70;;;22.70;48.00;;;;;;6149682;28;80403;-68
2021/12/07 16:49:57;;;;;;;11.60;7.85;;;22.70;48.40;;;;;;6154990;28;80296;-69
2021/12/07 16:52:58;;;;;;;13.68;8.43;;;22.70;48.00;;;;;;6158955;28;80625;-74
2021/12/07 16:55:58;;;;;;;15.98;9.30;;;22.70;48.20;;;;;;6156117;28;80501;-74
2021/12/07 16:58:59;;;;;;;16.45;10.43;;;22.70;47.20;;;;;;6158929;28;80661;-73
2021/12/07 17:01:59;;;;;;;15.15;9.27;;;22.70;47.20;;;;;;6155335;28;83336;-73
2021/12/07 17:05:02;;;;;;;14.52;9.70;;;22.70;47.10;;;;;;6148922;28;83175;-74